Time;durP1;ratioP1;P1;durP2;ratioP2;P2;SDS_P1;SDS_P2;PMS_P1;PMS_P2;Temp;Humidity;BMP_temperature;BMP_pressure;BME280_temperature;BME280_humidity;BME280_pressure;Samples;Min_cycle;Max_cycle;Signal;HPM_P1;HPM_P2
2023/01/29 00:01:15;;;;;;;;;;;20.60;60.10;;;;;;1476376;79;684;-70
2023/01/29 00:03:17;;;;;;;;;;;20.60;59.80;;;;;;1467343;80;1926;-73
2023/01/29 00:05:19;;;;;;;;;;;20.70;59.80;;;;;;1465095;80;726;-69
2023/01/29 00:07:21;;;;;;;;;;;20.70;59.60;;;;;;1474604;80;746;-69
2023/01/29 00:09:23;;;;;;;;;;;20.70;59.40;;;;;;1466697;80;1183;-69
2023/01/29 00:11:25;;;;;;;;;;;20.80;59.20;;;;;;1474408;80;730;-70
2023/01/29 00:13:27;;;;;;;;;;;20.70;59.20;;;;;;1469990;79;1578;-70
2023/01/29 00:15:29;;;;;;;;;;;20.70;59.00;;;;;;1474065;79;688;-73
2023/01/29 00:17:31;;;;;;;;;;;20.70;59.00;;;;;;1467233;79;1208;-70
2023/01/29 00:19:33;;;;;;;;;;;20.80;58.90;;;;;;1474835;80;735;-70
2023/01/29 00:21:35;;;;;;;;;;;20.70;58.90;;;;;;1474121;80;660;-70
2023/01/29 00:23:37;;;;;;;;;;;20.70;58.80;;;;;;1468041;80;1913;-70
2023/01/29 00:25:39;;;;;;;;;;;20.80;58.90;;;;;;1471612;80;709;-70
2023/01/29 00:28:00;;;;;;;;;;;20.70;58.80;;;;;;1467354;79;1553;-69
2023/01/29 00:30:17;;;;;;;;;;;20.70;59.10;;;;;;1480623;78;708;-66
2023/01/29 00:32:17;;;;;;;;;;;20.70;58.80;;;;;;1462034;80;1680;-66
2023/01/29 00:34:20;;;;;;;;;;;20.70;58.90;;;;;;1458750;80;539;-72
2023/01/29 00:36:22;;;;;;;;;;;20.70;59.00;;;;;;1456680;80;678;-67
2023/01/29 00:38:24;;;;;;;;;;;20.70;59.10;;;;;;1482901;78;1202;-66
2023/01/29 00:40:26;;;;;;;;;;;20.70;59.20;;;;;;1458337;80;1475;-65
2023/01/29 00:44:59;;;;;;;;;;;20.60;59.30;;;;;;1461759;80;1904;-66
2023/01/29 00:47:01;;;;;;;;;;;20.60;59.30;;;;;;1457215;80;618;-66
2023/01/29 00:49:03;;;;;;;;;;;20.60;59.40;;;;;;1462631;80;1130;-66
2023/01/29 00:51:05;;;;;;;;;;;20.60;59.40;;;;;;1461872;80;709;-65
2023/01/29 00:53:07;;;;;;;;;;;20.60;59.40;;;;;;1461748;80;639;-66
2023/01/29 00:55:09;;;;;;;;;;;20.60;59.50;;;;;;1460418;80;1371;-65
2023/01/29 00:57:11;;;;;;;;;;;20.60;59.50;;;;;;1461641;80;767;-65
2023/01/29 00:59:13;;;;;;;;;;;20.60;59.40;;;;;;1463774;80;1135;-66
2023/01/29 01:01:14;;;;;;;;;;;20.70;59.40;;;;;;1461753;80;700;-65
2023/01/29 01:03:16;;;;;;;;;;;20.60;59.30;;;;;;1461169;80;755;-66
2023/01/29 01:05:18;;;;;;;;;;;20.60;59.20;;;;;;1462853;80;1946;-65
2023/01/29 01:07:20;;;;;;;;;;;20.60;59.20;;;;;;1459068;80;727;-64
2023/01/29 01:11:42;;;;;;;;;;;20.70;59.30;;;;;;1460088;80;752;-65
2023/01/29 01:13:44;;;;;;;;;;;20.60;59.20;;;;;;1433972;81;670;-65
2023/01/29 01:15:46;;;;;;;;;;;20.60;59.20;;;;;;1433586;81;711;-66
2023/01/29 01:17:50;;;;;;;;;;;20.60;59.20;;;;;;1433769;81;1145;-66
2023/01/29 01:19:51;;;;;;;;;;;20.60;59.20;;;;;;1459782;80;1903;-67
2023/01/29 01:21:53;;;;;;;;;;;20.60;59.20;;;;;;1456323;80;679;-69
2023/01/29 01:23:55;;;;;;;;;;;20.60;59.30;;;;;;1434834;81;1934;-66
2023/01/29 01:25:57;;;;;;;;;;;20.60;59.20;;;;;;1468309;79;677;-66
2023/01/29 01:27:59;;;;;;;;;;;20.60;59.40;;;;;;1436502;80;1199;-66
2023/01/29 01:30:01;;;;;;;;;;;20.60;59.70;;;;;;1431806;81;766;-67
2023/01/29 01:32:03;;;;;;;;;;;20.50;59.70;;;;;;1456113;80;637;-71
2023/01/29 01:34:05;;;;;;;;;;;20.50;59.80;;;;;;1456961;80;672;-66
2023/01/29 01:36:12;;;;;;;;;;;20.60;59.80;;;;;;1460542;80;1678;-66
2023/01/29 01:38:11;;;;;;;;;;;20.50;59.90;;;;;;1461131;80;1560;-66
2023/01/29 01:40:16;;;;;;;;;;;20.60;59.90;;;;;;1459102;80;686;-66
2023/01/29 01:42:17;;;;;;;;;;;20.50;59.90;;;;;;1464745;80;1570;-68
2023/01/29 01:44:38;;;;;;;;;;;20.50;60.00;;;;;;1456948;80;1947;-66
2023/01/29 01:46:39;;;;;;;;;;;20.50;60.00;;;;;;1456537;80;715;-64
2023/01/29 01:48:41;;;;;;;;;;;20.50;60.10;;;;;;1454974;80;1129;-65
2023/01/29 01:50:47;;;;;;;;;;;20.50;60.10;;;;;;1462349;80;720;-64
2023/01/29 01:52:51;;;;;;;;;;;20.50;60.10;;;;;;1434260;81;705;-65
2023/01/29 01:54:53;;;;;;;;;;;20.50;60.00;;;;;;1435981;81;701;-63
2023/01/29 01:57:03;;;;;;;;;;;20.50;60.00;;;;;;1433652;81;687;-65
2023/01/29 01:59:00;;;;;;;;;;;20.60;60.10;;;;;;1429921;81;1660;-70
2023/01/29 02:01:03;;;;;;;;;;;20.50;60.10;;;;;;1464322;80;692;-64
2023/01/29 02:10:07;;;;;;;;;;;20.50;60.00;;;;;;1465446;80;1691;-67
2023/01/29 02:12:10;;;;;;;;;;;20.50;60.00;;;;;;1461931;80;694;-66
2023/01/29 02:14:12;;;;;;;;;;;20.50;60.10;;;;;;1463218;80;690;-70
2023/01/29 02:16:14;;;;;;;;;;;20.50;60.10;;;;;;1461154;80;632;-66
2023/01/29 02:18:16;;;;;;;;;;;20.50;60.10;;;;;;1461728;80;1140;-66
2023/01/29 02:20:23;;;;;;;;;;;20.50;60.10;;;;;;1462222;80;749;-67
2023/01/29 02:22:27;;;;;;;;;;;20.50;60.10;;;;;;1460565;79;1545;-66
2023/01/29 02:24:42;;;;;;;;;;;20.40;60.00;;;;;;1463764;80;1932;-67
2023/01/29 02:27:02;;;;;;;;;;;20.50;60.10;;;;;;1409004;82;1145;-65
2023/01/29 02:29:26;;;;;;;;;;;20.40;60.10;;;;;;1465391;80;1189;-66
2023/01/29 02:31:32;;;;;;;;;;;20.50;60.20;;;;;;1482566;79;1304;-66
2023/01/29 02:33:47;;;;;;;;;;;20.40;60.20;;;;;;1436533;81;651;-66
2023/01/29 02:35:57;;;;;;;;;;;20.40;60.30;;;;;;1435660;81;687;-64
2023/01/29 02:38:17;;;;;;;;;;;20.40;60.20;;;;;;1464791;80;1088;-64
2023/01/29 02:40:21;;;;;;;;;;;20.40;60.20;;;;;;1459220;80;708;-65
2023/01/29 02:42:30;;;;;;;;;;;20.40;60.20;;;;;;1466590;79;666;-68
2023/01/29 02:44:34;;;;;;;;;;;20.40;60.30;;;;;;1465960;80;1948;-67
2023/01/29 02:46:37;;;;;;;;;;;20.40;60.30;;;;;;1468898;80;2192;-65
2023/01/29 02:48:47;;;;;;;;;;;20.40;60.30;;;;;;1459623;80;1333;-65
2023/01/29 02:50:59;;;;;;;;;;;20.40;60.30;;;;;;1467689;80;1982;-67
2023/01/29 02:53:02;;;;;;;;;;;20.40;60.30;;;;;;1433533;81;1009;-67
2023/01/29 02:55:08;;;;;;;;;;;20.40;60.30;;;;;;1467846;79;538;-64
2023/01/29 02:57:19;;;;;;;;;;;20.40;60.20;;;;;;1434594;81;647;-65
2023/01/29 02:59:22;;;;;;;;;;;20.40;60.10;;;;;;1438702;81;1156;-64
2023/01/29 03:01:31;;;;;;;;;;;20.50;60.10;;;;;;1470900;79;700;-65
2023/01/29 03:03:34;;;;;;;;;;;20.40;60.00;;;;;;1447522;81;588;-65
2023/01/29 03:05:42;;;;;;;;;;;20.40;60.00;;;;;;1433358;81;1945;-66
2023/01/29 03:07:49;;;;;;;;;;;20.40;60.00;;;;;;1433445;81;1692;-66
2023/01/29 03:09:51;;;;;;;;;;;20.40;60.00;;;;;;1437233;81;1794;-65
2023/01/29 03:11:54;;;;;;;;;;;20.40;60.00;;;;;;1457548;80;662;-64
2023/01/29 03:13:57;;;;;;;;;;;20.40;60.00;;;;;;1433783;81;700;-63
2023/01/29 03:16:00;;;;;;;;;;;20.40;60.00;;;;;;1438468;81;606;-65
2023/01/29 03:18:03;;;;;;;;;;;20.40;60.00;;;;;;1433203;81;1136;-63
2023/01/29 03:20:06;;;;;;;;;;;20.40;60.00;;;;;;1438574;81;1391;-65
2023/01/29 03:22:08;;;;;;;;;;;20.40;60.00;;;;;;1473393;79;673;-64
2023/01/29 03:33:31;;;;;;;;;;;20.40;60.00;;;;;;1461307;80;1638;-65
2023/01/29 03:35:38;;;;;;;;;;;20.40;60.20;;;;;;1469640;80;780;-67
2023/01/29 03:37:41;;;;;;;;;;;20.40;60.30;;;;;;1453178;81;600;-65
2023/01/29 03:39:43;;;;;;;;;;;20.40;60.30;;;;;;1444093;81;1094;-66
2023/01/29 03:41:50;;;;;;;;;;;20.40;60.30;;;;;;1470933;79;694;-66
2023/01/29 03:43:53;;;;;;;;;;;20.40;60.40;;;;;;1452599;80;757;-66
2023/01/29 03:45:57;;;;;;;;;;;20.40;60.50;;;;;;1456483;80;1931;-67
2023/01/29 03:48:12;;;;;;;;;;;20.40;60.50;;;;;;1465476;80;1419;-66
2023/01/29 03:50:22;;;;;;;;;;;20.40;60.40;;;;;;1462813;80;710;-65
2023/01/29 03:52:26;;;;;;;;;;;20.40;60.50;;;;;;1468573;80;744;-65
2023/01/29 03:54:35;;;;;;;;;;;20.40;60.50;;;;;;1473331;80;679;-68
2023/01/29 03:56:54;;;;;;;;;;;20.40;60.50;;;;;;1469388;80;1092;-66
2023/01/29 03:59:03;;;;;;;;;;;20.40;60.40;;;;;;1441135;81;1102;-67
2023/01/29 04:01:13;;;;;;;;;;;20.40;60.40;;;;;;1465835;80;601;-66
2023/01/29 04:03:17;;;;;;;;;;;20.40;60.50;;;;;;1465991;80;709;-66
2023/01/29 04:05:22;;;;;;;;;;;20.40;60.50;;;;;;1467720;80;1989;-67
2023/01/29 04:07:24;;;;;;;;;;;20.40;60.50;;;;;;1445267;81;704;-65
2023/01/29 04:09:33;;;;;;;;;;;20.40;60.50;;;;;;1449913;81;1128;-65
2023/01/29 04:11:35;;;;;;;;;;;20.40;60.40;;;;;;1476459;79;1073;-65
2023/01/29 04:13:37;;;;;;;;;;;20.40;60.50;;;;;;1466259;79;664;-68
2023/01/29 04:15:41;;;;;;;;;;;20.50;60.50;;;;;;1456592;80;557;-70
2023/01/29 04:17:44;;;;;;;;;;;20.50;60.50;;;;;;1458725;80;916;-65
2023/01/29 04:19:46;;;;;;;;;;;20.40;60.50;;;;;;1470816;79;716;-66
2023/01/29 04:21:48;;;;;;;;;;;20.40;60.50;;;;;;1477879;79;692;-66
2023/01/29 04:23:50;;;;;;;;;;;20.40;60.50;;;;;;1474693;79;642;-66
2023/01/29 04:25:53;;;;;;;;;;;20.50;60.50;;;;;;1472406;79;1952;-65
2023/01/29 04:28:05;;;;;;;;;;;20.40;60.40;;;;;;1465118;80;1277;-65
2023/01/29 04:30:08;;;;;;;;;;;20.50;60.60;;;;;;1468930;79;724;-65
2023/01/29 04:32:14;;;;;;;;;;;20.40;60.50;;;;;;1473757;79;761;-66
2023/01/29 04:34:23;;;;;;;;;;;20.40;60.60;;;;;;1471202;79;744;-65
2023/01/29 04:36:34;;;;;;;;;;;20.50;60.70;;;;;;1472666;80;713;-65
2023/01/29 04:38:40;;;;;;;;;;;20.50;60.60;;;;;;1475575;80;1139;-65
2023/01/29 04:40:53;;;;;;;;;;;20.40;60.60;;;;;;1471666;79;1982;-65
2023/01/29 04:42:56;;;;;;;;;;;20.40;60.50;;;;;;1467340;79;1547;-65
2023/01/29 04:45:03;;;;;;;;;;;20.40;60.60;;;;;;1467933;80;1947;-65
2023/01/29 04:47:23;;;;;;;;;;;20.40;60.50;;;;;;1472266;79;700;-65
2023/01/29 04:49:27;;;;;;;;;;;20.40;60.50;;;;;;1476503;79;1081;-66
2023/01/29 04:51:33;;;;;;;;;;;20.40;60.50;;;;;;1477837;80;1908;-65
2023/01/29 04:53:37;;;;;;;;;;;20.40;60.60;;;;;;1470459;79;688;-64
2023/01/29 04:55:40;;;;;;;;;;;20.30;60.60;;;;;;1475023;79;695;-69
2023/01/29 04:57:46;;;;;;;;;;;20.40;60.60;;;;;;1471406;80;590;-66
2023/01/29 04:59:50;;;;;;;;;;;20.40;60.50;;;;;;1475397;80;705;-65
2023/01/29 05:01:52;;;;;;;;;;;20.40;60.40;;;;;;1469674;79;778;-66
2023/01/29 05:03:54;;;;;;;;;;;20.40;60.50;;;;;;1465454;79;704;-65
2023/01/29 05:05:55;;;;;;;;;;;20.40;60.40;;;;;;1477865;80;1900;-65
2023/01/29 05:07:57;;;;;;;;;;;20.40;60.40;;;;;;1475032;80;1127;-66
2023/01/29 05:09:59;;;;;;;;;;;20.40;60.40;;;;;;1472855;79;862;-67
2023/01/29 05:12:01;;;;;;;;;;;20.40;60.40;;;;;;1464536;80;712;-65
2023/01/29 05:14:04;;;;;;;;;;;20.40;60.30;;;;;;1466223;80;704;-66
2023/01/29 05:16:07;;;;;;;;;;;20.40;60.30;;;;;;1466351;80;602;-66
2023/01/29 05:18:09;;;;;;;;;;;20.40;60.20;;;;;;1466955;79;1692;-64
2023/01/29 05:20:11;;;;;;;;;;;20.40;60.20;;;;;;1468432;80;656;-65
2023/01/29 05:22:14;;;;;;;;;;;20.40;60.20;;;;;;1477294;80;643;-64
2023/01/29 05:24:16;;;;;;;;;;;20.40;60.20;;;;;;1477576;79;620;-65
2023/01/29 05:28:41;;;;;;;;;;;20.40;60.40;;;;;;1471675;79;1262;-69
2023/01/29 05:30:50;;;;;;;;;;;20.40;60.40;;;;;;1476255;80;689;-65
2023/01/29 05:32:52;;;;;;;;;;;20.30;60.60;;;;;;1467422;80;732;-67
2023/01/29 05:34:54;;;;;;;;;;;20.30;61.20;;;;;;1466080;80;706;-66
2023/01/29 05:36:56;;;;;;;;;;;20.30;61.40;;;;;;1461084;80;620;-68
2023/01/29 05:38:58;;;;;;;;;;;20.30;61.60;;;;;;1468570;80;1509;-67
2023/01/29 05:40:59;;;;;;;;;;;20.30;61.20;;;;;;1473567;79;704;-68
2023/01/29 05:43:01;;;;;;;;;;;20.40;60.80;;;;;;1466922;79;701;-67
2023/01/29 05:45:04;;;;;;;;;;;20.30;60.70;;;;;;1467656;80;612;-66
2023/01/29 05:47:05;;;;;;;;;;;20.40;60.50;;;;;;1471893;80;743;-69
2023/01/29 05:49:07;;;;;;;;;;;20.40;60.40;;;;;;1473751;79;1113;-65
2023/01/29 05:51:09;;;;;;;;;;;20.40;60.50;;;;;;1470828;80;686;-66
2023/01/29 05:53:11;;;;;;;;;;;20.40;60.40;;;;;;1476369;80;692;-66
2023/01/29 05:55:13;;;;;;;;;;;20.50;60.40;;;;;;1465878;79;679;-67
2023/01/29 05:57:15;;;;;;;;;;;20.50;60.30;;;;;;1468858;80;658;-68
2023/01/29 05:59:17;;;;;;;;;;;20.50;60.20;;;;;;1471068;80;1141;-66
2023/01/29 06:01:19;;;;;;;;;;;20.50;60.20;;;;;;1478379;80;709;-68
2023/01/29 06:03:21;;;;;;;;;;;20.50;60.10;;;;;;1469555;80;723;-72
2023/01/29 06:05:23;;;;;;;;;;;20.40;60.00;;;;;;1473208;80;1943;-67
2023/01/29 06:07:25;;;;;;;;;;;20.40;60.00;;;;;;1469267;80;737;-67
2023/01/29 06:09:27;;;;;;;;;;;20.50;60.20;;;;;;1466205;79;1126;-67
2023/01/29 06:11:29;;;;;;;;;;;20.40;60.20;;;;;;1467285;80;650;-66
2023/01/29 06:13:30;;;;;;;;;;;20.40;60.10;;;;;;1465883;80;734;-67
2023/01/29 06:15:32;;;;;;;;;;;20.40;60.00;;;;;;1467033;79;678;-68
2023/01/29 06:17:34;;;;;;;;;;;20.50;60.10;;;;;;1465436;80;719;-66
2023/01/29 06:19:36;;;;;;;;;;;20.40;60.00;;;;;;1473750;80;1082;-67
2023/01/29 06:21:38;;;;;;;;;;;20.40;59.90;;;;;;1478228;80;708;-67
2023/01/29 06:23:40;;;;;;;;;;;20.40;59.90;;;;;;1470759;79;648;-66
2023/01/29 06:25:42;;;;;;;;;;;20.40;59.90;;;;;;1469294;79;1933;-68
2023/01/29 06:27:44;;;;;;;;;;;20.50;60.00;;;;;;1475460;79;607;-67
2023/01/29 06:29:45;;;;;;;;;;;20.40;59.90;;;;;;1553039;72;2099;-73
2023/01/29 06:31:47;;;;;;;;;;;20.40;59.90;;;;;;1573718;74;655;-70
2023/01/29 06:33:49;;;;;;;;;;;20.50;60.00;;;;;;1572243;74;684;-73
2023/01/29 06:35:57;;;;;;;;;;;20.40;59.90;;;;;;1573553;74;1542;-70
2023/01/29 06:37:59;;;;;;;;;;;20.50;60.10;;;;;;1568039;74;725;-73
2023/01/29 06:40:01;;;;;;;;;;;20.40;60.20;;;;;;1552420;75;1174;-73
2023/01/29 06:42:03;;;;;;;;;;;20.40;60.10;;;;;;1552487;75;576;-73
2023/01/29 06:44:05;;;;;;;;;;;20.40;60.10;;;;;;1550942;75;608;-73
2023/01/29 06:46:07;;;;;;;;;;;20.40;60.10;;;;;;1566536;75;1939;-76
2023/01/29 06:48:09;;;;;;;;;;;20.40;60.20;;;;;;1562140;75;778;-71
2023/01/29 06:50:11;;;;;;;;;;;20.30;60.20;;;;;;1556642;75;1122;-72
2023/01/29 06:52:13;;;;;;;;;;;20.40;60.20;;;;;;1560722;75;694;-72
2023/01/29 06:54:15;;;;;;;;;;;20.40;60.10;;;;;;1541327;75;642;-72
2023/01/29 06:56:16;;;;;;;;;;;20.40;60.10;;;;;;1555713;75;779;-72
2023/01/29 06:58:18;;;;;;;;;;;20.40;60.00;;;;;;1557874;75;1136;-72
2023/01/29 07:00:20;;;;;;;;;;;20.40;60.10;;;;;;1552605;75;669;-72
2023/01/29 07:02:22;;;;;;;;;;;20.40;60.00;;;;;;1556332;75;726;-71
2023/01/29 07:04:24;;;;;;;;;;;20.40;60.00;;;;;;1542318;75;693;-73
2023/01/29 07:06:29;;;;;;;;;;;20.40;60.00;;;;;;1559596;75;1916;-72
2023/01/29 07:08:31;;;;;;;;;;;20.50;60.10;;;;;;1550120;75;1166;-72
2023/01/29 07:10:33;;;;;;;;;;;20.40;60.00;;;;;;1549930;75;744;-72
2023/01/29 07:12:35;;;;;;;;;;;20.40;60.00;;;;;;1541950;75;685;-72
2023/01/29 07:14:37;;;;;;;;;;;20.40;60.00;;;;;;1549063;75;760;-72
2023/01/29 07:16:38;;;;;;;;;;;20.40;60.00;;;;;;1551755;75;715;-74
2023/01/29 07:18:40;;;;;;;;;;;20.40;60.00;;;;;;1543137;75;1138;-72
2023/01/29 07:20:42;;;;;;;;;;;20.40;60.00;;;;;;1550714;75;799;-70
2023/01/29 07:22:44;;;;;;;;;;;20.40;60.10;;;;;;1565844;75;738;-71
2023/01/29 07:24:47;;;;;;;;;;;20.40;60.20;;;;;;1559783;75;697;-71
2023/01/29 07:26:49;;;;;;;;;;;20.30;60.20;;;;;;1558418;75;1915;-72
2023/01/29 07:28:51;;;;;;;;;;;20.30;60.40;;;;;;1541946;75;1164;-72
2023/01/29 07:30:56;;;;;;;;;;;20.30;60.40;;;;;;1561247;75;823;-72
2023/01/29 07:33:05;;;;;;;;;;;20.40;60.30;;;;;;1548199;75;1574;-72
2023/01/29 07:35:07;;;;;;;;;;;20.40;60.20;;;;;;1538900;75;722;-72
2023/01/29 07:37:09;;;;;;;;;;;20.30;60.20;;;;;;1542138;75;631;-72
2023/01/29 07:39:11;;;;;;;;;;;20.30;60.20;;;;;;1554959;75;1106;-72
2023/01/29 07:41:12;;;;;;;;;;;20.40;60.20;;;;;;1565205;75;768;-73
2023/01/29 07:43:15;;;;;;;;;;;20.30;60.10;;;;;;1545781;75;658;-73
2023/01/29 07:45:17;;;;;;;;;;;20.40;60.10;;;;;;1561007;75;704;-74
2023/01/29 07:47:19;;;;;;;;;;;20.40;60.00;;;;;;1546882;75;1935;-75
2023/01/29 07:49:21;;;;;;;;;;;20.40;60.00;;;;;;1542964;75;1216;-74
2023/01/29 07:51:23;;;;;;;;;;;20.40;60.00;;;;;;1544675;75;706;-73
2023/01/29 07:53:25;;;;;;;;;;;20.40;60.00;;;;;;1559642;75;759;-72
2023/01/29 07:55:26;;;;;;;;;;;20.40;60.00;;;;;;1543460;75;709;-73
2023/01/29 07:57:29;;;;;;;;;;;20.40;60.00;;;;;;1550532;75;704;-72
2023/01/29 07:59:31;;;;;;;;;;;20.40;60.00;;;;;;1544698;75;1118;-73
2023/01/29 08:01:33;;;;;;;;;;;20.40;60.00;;;;;;1563212;75;754;-74
2023/01/29 08:03:35;;;;;;;;;;;20.40;60.00;;;;;;1551161;75;699;-73
2023/01/29 08:05:36;;;;;;;;;;;20.40;60.00;;;;;;1533564;75;636;-73
2023/01/29 08:07:39;;;;;;;;;;;20.40;60.10;;;;;;1556986;75;1938;-73
2023/01/29 08:09:40;;;;;;;;;;;20.30;60.30;;;;;;1547790;75;1139;-73
2023/01/29 08:11:42;;;;;;;;;;;20.30;60.70;;;;;;1561893;75;760;-69
2023/01/29 08:13:45;;;;;;;;;;;20.30;61.40;;;;;;1549001;75;739;-69
2023/01/29 08:15:47;;;;;;;;;;;20.20;61.40;;;;;;1533502;75;599;-70
2023/01/29 08:17:49;;;;;;;;;;;20.20;61.30;;;;;;1544283;75;657;-69
2023/01/29 08:19:51;;;;;;;;;;;20.30;61.10;;;;;;1532384;75;1128;-68
2023/01/29 08:21:53;;;;;;;;;;;20.30;60.90;;;;;;1545682;75;671;-72
2023/01/29 08:23:54;;;;;;;;;;;20.20;60.70;;;;;;1543291;75;678;-70
2023/01/29 08:25:56;;;;;;;;;;;20.30;60.70;;;;;;1560381;75;715;-65
2023/01/29 08:27:58;;;;;;;;;;;20.30;60.70;;;;;;1556475;75;1950;-69
2023/01/29 08:30:00;;;;;;;;;;;20.20;60.60;;;;;;1552534;74;1138;-68
2023/01/29 08:32:02;;;;;;;;;;;20.20;60.70;;;;;;1577096;74;728;-66
2023/01/29 08:34:04;;;;;;;;;;;20.20;60.70;;;;;;1567103;74;765;-68
2023/01/29 08:36:06;;;;;;;;;;;20.20;60.70;;;;;;1569052;74;678;-69
2023/01/29 08:38:09;;;;;;;;;;;20.20;60.70;;;;;;1574624;74;768;-68
2023/01/29 08:40:12;;;;;;;;;;;20.20;60.70;;;;;;1569879;74;1216;-67
2023/01/29 08:42:14;;;;;;;;;;;20.10;60.70;;;;;;1564786;74;773;-71
2023/01/29 08:44:16;;;;;;;;;;;20.10;60.70;;;;;;1559085;74;601;-68
2023/01/29 08:46:17;;;;;;;;;;;20.10;60.70;;;;;;1572863;74;1940;-68
2023/01/29 08:48:19;;;;;;;;;;;20.10;60.70;;;;;;1562909;74;1132;-68
2023/01/29 08:50:21;;;;;;;;;;;20.10;60.70;;;;;;1571920;74;684;-68
2023/01/29 08:52:23;;;;;;;;;;;20.10;60.70;;;;;;1562498;74;756;-68
2023/01/29 08:54:25;;;;;;;;;;;20.10;60.70;;;;;;1578431;74;822;-69
2023/01/29 08:56:27;;;;;;;;;;;20.10;60.70;;;;;;1573698;74;681;-70
2023/01/29 08:58:29;;;;;;;;;;;20.10;60.70;;;;;;1566318;74;1104;-68
2023/01/29 09:00:31;;;;;;;;;;;20.10;60.70;;;;;;1561110;74;775;-68
2023/01/29 09:02:33;;;;;;;;;;;20.10;60.70;;;;;;1557643;74;685;-68
2023/01/29 09:04:35;;;;;;;;;;;20.10;60.80;;;;;;1566630;74;682;-68
2023/01/29 09:06:36;;;;;;;;;;;20.10;60.80;;;;;;1567007;74;1951;-68
2023/01/29 09:08:38;;;;;;;;;;;20.10;60.80;;;;;;1567409;74;1141;-68
2023/01/29 09:10:40;;;;;;;;;;;20.10;60.90;;;;;;1566425;74;683;-68
2023/01/29 09:12:42;;;;;;;;;;;20.10;60.90;;;;;;1559810;74;710;-69
2023/01/29 09:14:44;;;;;;;;;;;20.10;60.90;;;;;;1565579;74;636;-69
2023/01/29 09:16:46;;;;;;;;;;;20.10;60.90;;;;;;1571099;74;659;-68
2023/01/29 09:18:48;;;;;;;;;;;20.10;60.90;;;;;;1566652;74;1141;-69
2023/01/29 09:20:50;;;;;;;;;;;20.10;61.00;;;;;;1572421;74;679;-68
2023/01/29 09:22:54;;;;;;;;;;;20.00;60.90;;;;;;1573132;74;725;-68
2023/01/29 09:24:55;;;;;;;;;;;20.10;61.00;;;;;;1576371;74;1616;-71
2023/01/29 09:26:57;;;;;;;;;;;20.10;61.00;;;;;;1567518;74;1938;-69
2023/01/29 09:28:59;;;;;;;;;;;20.10;61.00;;;;;;1558769;74;1154;-68
2023/01/29 09:31:01;;;;;;;;;;;20.10;61.10;;;;;;1555059;74;778;-68
2023/01/29 09:33:04;;;;;;;;;;;20.10;61.10;;;;;;1572780;74;937;-69
2023/01/29 09:35:06;;;;;;;;;;;20.00;61.00;;;;;;1561672;74;718;-70
2023/01/29 09:37:08;;;;;;;;;;;20.00;61.10;;;;;;1573441;74;679;-70
2023/01/29 09:39:10;;;;;;;;;;;20.00;61.10;;;;;;1557711;74;1205;-68
2023/01/29 09:41:13;;;;;;;;;;;20.00;61.20;;;;;;1570742;74;909;-68
2023/01/29 09:43:17;;;;;;;;;;;20.00;61.20;;;;;;1566993;74;1975;-68
2023/01/29 09:45:25;;;;;;;;;;;20.00;61.10;;;;;;1564165;74;705;-70
2023/01/29 09:47:27;;;;;;;;;;;20.10;61.20;;;;;;1577762;74;1930;-68
2023/01/29 09:49:31;;;;;;;;;;;20.00;61.10;;;;;;1574970;74;1167;-70
2023/01/29 09:51:40;;;;;;;;;;;20.10;61.30;;;;;;1574031;74;783;-68
2023/01/29 09:53:46;;;;;;;;;;;20.00;61.20;;;;;;1566416;74;1683;-68
2023/01/29 09:55:49;;;;;;;;;;;20.00;61.10;;;;;;1574080;74;706;-66
2023/01/29 09:57:51;;;;;;;;;;;20.10;61.20;;;;;;1563236;74;796;-68
2023/01/29 09:59:54;;;;;;;;;;;20.10;61.20;;;;;;1567918;74;1109;-69
2023/01/29 10:02:09;;;;;;;;;;;20.00;61.20;;;;;;1574929;74;718;-69
2023/01/29 10:04:28;;;;;;;;;;;20.10;61.30;;;;;;1560616;74;680;-66
2023/01/29 10:06:34;;;;;;;;;;;20.00;61.10;;;;;;1568957;74;1239;-69
2023/01/29 10:08:38;;;;;;;;;;;20.00;61.10;;;;;;1568597;74;1925;-68
2023/01/29 10:10:41;;;;;;;;;;;20.00;61.10;;;;;;1567075;74;1910;-68
2023/01/29 10:12:45;;;;;;;;;;;20.00;61.10;;;;;;1563146;74;1995;-69
2023/01/29 10:14:57;;;;;;;;;;;20.00;61.20;;;;;;1572237;74;1725;-68
2023/01/29 10:17:13;;;;;;;;;;;20.00;61.20;;;;;;1573997;74;558;-68
2023/01/29 10:19:25;;;;;;;;;;;20.00;61.20;;;;;;1564796;74;1857;-68
2023/01/29 10:21:29;;;;;;;;;;;20.00;61.20;;;;;;1565544;74;1831;-68
2023/01/29 10:23:34;;;;;;;;;;;20.00;61.20;;;;;;1572286;74;1885;-69
2023/01/29 10:25:36;;;;;;;;;;;20.00;61.10;;;;;;1561602;74;695;-69
2023/01/29 10:27:39;;;;;;;;;;;20.00;61.10;;;;;;1571244;74;1930;-69
2023/01/29 10:29:41;;;;;;;;;;;20.00;61.20;;;;;;1580105;74;1171;-68
2023/01/29 10:31:43;;;;;;;;;;;20.00;61.20;;;;;;1583640;74;821;-68
2023/01/29 10:33:47;;;;;;;;;;;20.00;61.20;;;;;;1577862;74;531;-68
2023/01/29 10:35:51;;;;;;;;;;;20.00;61.20;;;;;;1570544;74;682;-68
2023/01/29 10:37:53;;;;;;;;;;;20.00;61.20;;;;;;1577736;74;747;-68
2023/01/29 10:39:55;;;;;;;;;;;20.00;61.10;;;;;;1575416;74;1199;-69
2023/01/29 10:42:08;;;;;;;;;;;20.00;61.10;;;;;;1571166;74;673;-68
2023/01/29 10:44:11;;;;;;;;;;;20.00;61.20;;;;;;1557954;74;1797;-68
2023/01/29 10:46:21;;;;;;;;;;;20.10;61.20;;;;;;1559740;74;734;-68
2023/01/29 10:48:24;;;;;;;;;;;20.00;61.20;;;;;;1558868;74;1935;-68
2023/01/29 10:50:28;;;;;;;;;;;20.00;61.30;;;;;;1569957;74;1735;-68
2023/01/29 10:52:31;;;;;;;;;;;20.00;61.30;;;;;;1570017;74;1769;-74
2023/01/29 10:54:41;;;;;;;;;;;20.00;61.40;;;;;;1570492;74;1502;-68
2023/01/29 10:56:44;;;;;;;;;;;20.00;61.40;;;;;;1558560;74;801;-68
2023/01/29 10:58:48;;;;;;;;;;;20.10;61.40;;;;;;1577316;74;1763;-70
2023/01/29 11:00:50;;;;;;;;;;;20.10;61.40;;;;;;1591577;74;739;-68
2023/01/29 11:02:52;;;;;;;;;;;20.10;61.40;;;;;;1577560;74;704;-68
2023/01/29 11:04:54;;;;;;;;;;;20.10;61.40;;;;;;1564402;74;713;-68
2023/01/29 11:06:56;;;;;;;;;;;20.00;61.30;;;;;;1565885;74;702;-69
2023/01/29 11:08:59;;;;;;;;;;;20.00;61.40;;;;;;1577269;74;1936;-68
2023/01/29 11:11:03;;;;;;;;;;;20.00;61.30;;;;;;1581995;74;644;-71
2023/01/29 11:13:05;;;;;;;;;;;20.10;61.50;;;;;;1560183;74;1783;-68
2023/01/29 11:15:08;;;;;;;;;;;20.00;61.90;;;;;;1571871;74;771;-70
2023/01/29 11:17:17;;;;;;;;;;;20.00;63.00;;;;;;1561353;74;1631;-68
2023/01/29 11:19:19;;;;;;;;;;;20.00;64.80;;;;;;1565761;74;1099;-70
2023/01/29 11:21:21;;;;;;;;;;;20.10;66.00;;;;;;1570240;74;709;-69
2023/01/29 11:23:25;;;;;;;;;;;20.10;65.50;;;;;;1579406;74;638;-69
2023/01/29 11:25:28;;;;;;;;;;;20.10;65.60;;;;;;1571645;74;1816;-69
2023/01/29 11:27:32;;;;;;;;;;;20.20;65.60;;;;;;1571726;74;1902;-69
2023/01/29 11:29:35;;;;;;;;;;;20.20;65.70;;;;;;1583466;74;1172;-69
2023/01/29 11:31:37;;;;;;;;;;;20.20;65.80;;;;;;1584370;74;1956;-68
2023/01/29 11:33:39;;;;;;;;;;;20.20;65.80;;;;;;1566633;74;702;-68
2023/01/29 11:35:41;;;;;;;;;;;20.20;66.30;;;;;;1573795;74;686;-72
2023/01/29 11:37:43;;;;;;;;;;;20.20;65.90;;;;;;1576723;74;681;-69
2023/01/29 11:39:49;;;;;;;;;;;20.20;65.80;;;;;;1567024;74;1212;-72
2023/01/29 11:42:02;;;;;;;;;;;20.30;66.10;;;;;;1572470;74;666;-69
2023/01/29 11:44:06;;;;;;;;;;;20.30;65.90;;;;;;1583117;74;675;-69
2023/01/29 11:46:09;;;;;;;;;;;20.30;65.80;;;;;;1563302;74;1845;-68
2023/01/29 11:48:15;;;;;;;;;;;20.40;65.80;;;;;;1573408;74;2115;-69
2023/01/29 11:50:21;;;;;;;;;;;20.30;65.60;;;;;;1571053;74;828;-69
2023/01/29 11:52:24;;;;;;;;;;;20.40;66.20;;;;;;1567158;74;696;-69
2023/01/29 11:54:27;;;;;;;;;;;20.30;65.70;;;;;;1571370;74;761;-68
2023/01/29 11:56:34;;;;;;;;;;;20.40;65.40;;;;;;1563469;74;777;-68
2023/01/29 11:58:35;;;;;;;;;;;20.50;65.30;;;;;;1562495;74;1169;-69
2023/01/29 12:00:37;;;;;;;;;;;20.40;65.10;;;;;;1567396;74;696;-70
2023/01/29 12:02:42;;;;;;;;;;;20.50;65.20;;;;;;1584958;74;718;-69
2023/01/29 12:04:44;;;;;;;;;;;20.50;65.30;;;;;;1567765;74;696;-70
2023/01/29 12:06:47;;;;;;;;;;;20.40;65.60;;;;;;1580126;74;737;-70
2023/01/29 12:09:00;;;;;;;;;;;20.40;65.50;;;;;;1572061;74;1926;-69
2023/01/29 12:11:09;;;;;;;;;;;20.30;65.60;;;;;;1563671;74;1389;-68
2023/01/29 12:13:18;;;;;;;;;;;20.30;65.50;;;;;;1567205;74;1548;-68
2023/01/29 12:15:23;;;;;;;;;;;20.30;65.40;;;;;;1558421;74;1591;-68
2023/01/29 12:17:25;;;;;;;;;;;20.40;65.30;;;;;;1579947;74;1933;-71
2023/01/29 12:19:29;;;;;;;;;;;20.40;65.30;;;;;;1566670;74;1240;-69
2023/01/29 12:21:39;;;;;;;;;;;20.40;65.30;;;;;;1583102;74;705;-69
2023/01/29 12:23:47;;;;;;;;;;;20.40;65.20;;;;;;1575494;74;1810;-68
2023/01/29 12:25:54;;;;;;;;;;;20.50;64.90;;;;;;1572356;74;690;-71
2023/01/29 12:27:57;;;;;;;;;;;20.50;64.60;;;;;;1560155;74;1923;-70
2023/01/29 12:30:19;;;;;;;;;;;20.50;64.70;;;;;;1576181;73;3039;-69
2023/01/29 12:32:35;;;;;;;;;;;20.50;64.30;;;;;;1591109;74;667;-69
2023/01/29 12:34:48;;;;;;;;;;;20.60;63.90;;;;;;1597509;74;617;-68
2023/01/29 12:36:55;;;;;;;;;;;20.60;64.00;;;;;;1594222;74;671;-67
2023/01/29 12:38:58;;;;;;;;;;;20.50;64.00;;;;;;1599433;73;1247;-68
2023/01/29 12:41:01;;;;;;;;;;;20.50;64.00;;;;;;1617249;73;744;-69
2023/01/29 12:43:16;;;;;;;;;;;20.50;64.00;;;;;;1612435;72;1042;-69